sensor_id;sensor_type;location;lat;lon;timestamp;P1;durP1;ratioP1;P2;durP2;ratioP2
49678;SDS011;35570;48.218;16.326;2023-08-30T00:00:38;1.60;;;1.40;;
49678;SDS011;35570;48.218;16.326;2023-08-30T00:03:04;1.40;;;1.30;;
49678;SDS011;35570;48.218;16.326;2023-08-30T00:05:31;1.38;;;1.10;;
49678;SDS011;35570;48.218;16.326;2023-08-30T00:07:57;1.23;;;1.10;;
49678;SDS011;35570;48.218;16.326;2023-08-30T00:10:23;2.00;;;1.35;;
49678;SDS011;35570;48.218;16.326;2023-08-30T00:12:48;1.85;;;1.50;;
49678;SDS011;35570;48.218;16.326;2023-08-30T00:15:14;1.48;;;1.27;;
49678;SDS011;35570;48.218;16.326;2023-08-30T00:17:40;1.52;;;1.30;;
49678;SDS011;35570;48.218;16.326;2023-08-30T00:20:06;1.77;;;1.40;;
49678;SDS011;35570;48.218;16.326;2023-08-30T00:22:32;1.52;;;1.33;;
49678;SDS011;35570;48.218;16.326;2023-08-30T00:24:58;1.55;;;1.45;;
49678;SDS011;35570;48.218;16.326;2023-08-30T00:27:24;1.52;;;1.42;;
49678;SDS011;35570;48.218;16.326;2023-08-30T00:29:49;1.88;;;1.38;;
49678;SDS011;35570;48.218;16.326;2023-08-30T00:32:15;2.40;;;1.48;;
49678;SDS011;35570;48.218;16.326;2023-08-30T00:34:41;2.15;;;1.50;;
49678;SDS011;35570;48.218;16.326;2023-08-30T00:37:06;3.03;;;1.60;;
49678;SDS011;35570;48.218;16.326;2023-08-30T00:39:33;1.55;;;1.45;;
49678;SDS011;35570;48.218;16.326;2023-08-30T00:41:59;2.17;;;1.38;;
49678;SDS011;35570;48.218;16.326;2023-08-30T00:44:29;1.35;;;1.25;;
49678;SDS011;35570;48.218;16.326;2023-08-30T00:46:55;2.55;;;1.33;;
49678;SDS011;35570;48.218;16.326;2023-08-30T00:49:21;1.30;;;1.20;;
49678;SDS011;35570;48.218;16.326;2023-08-30T00:51:46;1.48;;;1.38;;
49678;SDS011;35570;48.218;16.326;2023-08-30T00:54:12;1.20;;;1.10;;
49678;SDS011;35570;48.218;16.326;2023-08-30T00:56:38;1.42;;;1.15;;
49678;SDS011;35570;48.218;16.326;2023-08-30T00:59:03;1.88;;;1.40;;
49678;SDS011;35570;48.218;16.326;2023-08-30T01:01:29;1.27;;;1.17;;
49678;SDS011;35570;48.218;16.326;2023-08-30T01:03:55;1.77;;;1.30;;
49678;SDS011;35570;48.218;16.326;2023-08-30T01:06:20;1.30;;;1.20;;
49678;SDS011;35570;48.218;16.326;2023-08-30T01:08:46;2.85;;;1.40;;
49678;SDS011;35570;48.218;16.326;2023-08-30T01:11:26;1.50;;;1.30;;
49678;SDS011;35570;48.218;16.326;2023-08-30T01:14:18;1.23;;;1.13;;
49678;SDS011;35570;48.218;16.326;2023-08-30T01:16:47;1.55;;;1.30;;
49678;SDS011;35570;48.218;16.326;2023-08-30T01:19:26;1.17;;;1.02;;
49678;SDS011;35570;48.218;16.326;2023-08-30T01:27:37;1.13;;;1.02;;
49678;SDS011;35570;48.218;16.326;2023-08-30T01:30:04;1.92;;;1.20;;
49678;SDS011;35570;48.218;16.326;2023-08-30T01:32:33;2.00;;;1.20;;
49678;SDS011;35570;48.218;16.326;2023-08-30T01:35:00;1.30;;;1.20;;
49678;SDS011;35570;48.218;16.326;2023-08-30T01:37:27;1.60;;;1.15;;
49678;SDS011;35570;48.218;16.326;2023-08-30T01:39:54;1.35;;;1.00;;
49678;SDS011;35570;48.218;16.326;2023-08-30T01:42:21;1.02;;;0.90;;
49678;SDS011;35570;48.218;16.326;2023-08-30T01:44:49;1.15;;;1.00;;
49678;SDS011;35570;48.218;16.326;2023-08-30T01:47:16;1.10;;;1.00;;
49678;SDS011;35570;48.218;16.326;2023-08-30T01:49:43;1.05;;;0.95;;
49678;SDS011;35570;48.218;16.326;2023-08-30T01:52:10;1.90;;;1.33;;
49678;SDS011;35570;48.218;16.326;2023-08-30T01:54:36;2.35;;;1.38;;
49678;SDS011;35570;48.218;16.326;2023-08-30T01:57:04;1.20;;;1.10;;
49678;SDS011;35570;48.218;16.326;2023-08-30T01:59:30;1.30;;;1.20;;
49678;SDS011;35570;48.218;16.326;2023-08-30T02:01:56;3.33;;;1.33;;
49678;SDS011;35570;48.218;16.326;2023-08-30T02:04:22;1.40;;;1.30;;
49678;SDS011;35570;48.218;16.326;2023-08-30T02:12:23;2.28;;;1.17;;
49678;SDS011;35570;48.218;16.326;2023-08-30T02:14:51;3.08;;;1.60;;
49678;SDS011;35570;48.218;16.326;2023-08-30T02:17:18;3.00;;;1.20;;
49678;SDS011;35570;48.218;16.326;2023-08-30T02:19:45;1.30;;;1.20;;
49678;SDS011;35570;48.218;16.326;2023-08-30T02:22:11;1.48;;;1.20;;
49678;SDS011;35570;48.218;16.326;2023-08-30T02:24:37;1.70;;;1.30;;
49678;SDS011;35570;48.218;16.326;2023-08-30T02:27:03;1.60;;;1.40;;
49678;SDS011;35570;48.218;16.326;2023-08-30T02:29:29;2.90;;;1.40;;
49678;SDS011;35570;48.218;16.326;2023-08-30T02:31:54;2.63;;;1.40;;
49678;SDS011;35570;48.218;16.326;2023-08-30T02:34:20;1.50;;;1.40;;
49678;SDS011;35570;48.218;16.326;2023-08-30T02:36:46;2.65;;;1.40;;
49678;SDS011;35570;48.218;16.326;2023-08-30T02:39:13;2.70;;;1.40;;
49678;SDS011;35570;48.218;16.326;2023-08-30T02:41:40;1.90;;;1.40;;
49678;SDS011;35570;48.218;16.326;2023-08-30T02:44:07;2.70;;;1.50;;
49678;SDS011;35570;48.218;16.326;2023-08-30T02:46:33;1.67;;;1.40;;
49678;SDS011;35570;48.218;16.326;2023-08-30T02:48:59;1.65;;;1.30;;
49678;SDS011;35570;48.218;16.326;2023-08-30T02:51:24;1.90;;;1.30;;
49678;SDS011;35570;48.218;16.326;2023-08-30T02:53:50;1.60;;;1.50;;
49678;SDS011;35570;48.218;16.326;2023-08-30T02:56:16;2.85;;;1.30;;
49678;SDS011;35570;48.218;16.326;2023-08-30T02:58:41;1.95;;;1.30;;
49678;SDS011;35570;48.218;16.326;2023-08-30T03:01:07;1.30;;;1.20;;
49678;SDS011;35570;48.218;16.326;2023-08-30T03:03:32;3.28;;;1.35;;
49678;SDS011;35570;48.218;16.326;2023-08-30T03:05:58;1.42;;;1.20;;
49678;SDS011;35570;48.218;16.326;2023-08-30T03:08:24;1.98;;;1.50;;
49678;SDS011;35570;48.218;16.326;2023-08-30T03:10:49;2.55;;;1.60;;
49678;SDS011;35570;48.218;16.326;2023-08-30T03:13:15;1.30;;;1.20;;
49678;SDS011;35570;48.218;16.326;2023-08-30T03:15:40;1.65;;;1.38;;
49678;SDS011;35570;48.218;16.326;2023-08-30T03:18:06;1.55;;;1.40;;
49678;SDS011;35570;48.218;16.326;2023-08-30T03:20:32;1.50;;;1.40;;
49678;SDS011;35570;48.218;16.326;2023-08-30T03:22:57;2.45;;;1.20;;
49678;SDS011;35570;48.218;16.326;2023-08-30T03:25:24;1.85;;;1.08;;
49678;SDS011;35570;48.218;16.326;2023-08-30T03:27:49;2.50;;;1.20;;
49678;SDS011;35570;48.218;16.326;2023-08-30T03:30:15;1.33;;;1.10;;
49678;SDS011;35570;48.218;16.326;2023-08-30T03:32:40;1.25;;;1.10;;
49678;SDS011;35570;48.218;16.326;2023-08-30T03:35:06;1.23;;;1.10;;
49678;SDS011;35570;48.218;16.326;2023-08-30T03:37:33;2.75;;;1.10;;
49678;SDS011;35570;48.218;16.326;2023-08-30T03:39:59;1.58;;;1.00;;
49678;SDS011;35570;48.218;16.326;2023-08-30T03:42:24;1.42;;;0.98;;
49678;SDS011;35570;48.218;16.326;2023-08-30T03:44:50;1.17;;;1.08;;
49678;SDS011;35570;48.218;16.326;2023-08-30T03:47:16;1.05;;;0.95;;
49678;SDS011;35570;48.218;16.326;2023-08-30T03:49:41;1.50;;;0.93;;
49678;SDS011;35570;48.218;16.326;2023-08-30T03:52:08;1.55;;;1.20;;
49678;SDS011;35570;48.218;16.326;2023-08-30T03:54:34;1.10;;;1.00;;
49678;SDS011;35570;48.218;16.326;2023-08-30T03:56:59;1.20;;;1.10;;
49678;SDS011;35570;48.218;16.326;2023-08-30T03:59:25;1.83;;;1.30;;
49678;SDS011;35570;48.218;16.326;2023-08-30T04:01:52;3.28;;;1.20;;
49678;SDS011;35570;48.218;16.326;2023-08-30T04:04:18;1.73;;;1.35;;
49678;SDS011;35570;48.218;16.326;2023-08-30T04:06:44;1.80;;;1.23;;
49678;SDS011;35570;48.218;16.326;2023-08-30T04:09:09;1.50;;;1.40;;
49678;SDS011;35570;48.218;16.326;2023-08-30T04:11:35;2.00;;;1.80;;
49678;SDS011;35570;48.218;16.326;2023-08-30T04:14:01;1.77;;;1.65;;
49678;SDS011;35570;48.218;16.326;2023-08-30T04:16:27;1.55;;;1.45;;
49678;SDS011;35570;48.218;16.326;2023-08-30T04:18:53;2.88;;;1.80;;
49678;SDS011;35570;48.218;16.326;2023-08-30T04:21:19;4.20;;;1.60;;
49678;SDS011;35570;48.218;16.326;2023-08-30T04:23:44;2.42;;;1.70;;
49678;SDS011;35570;48.218;16.326;2023-08-30T04:26:10;1.75;;;1.65;;
49678;SDS011;35570;48.218;16.326;2023-08-30T04:28:36;3.25;;;1.50;;
49678;SDS011;35570;48.218;16.326;2023-08-30T04:31:01;1.83;;;1.63;;
49678;SDS011;35570;48.218;16.326;2023-08-30T04:33:27;2.40;;;1.75;;
49678;SDS011;35570;48.218;16.326;2023-08-30T04:35:53;3.00;;;1.90;;
49678;SDS011;35570;48.218;16.326;2023-08-30T04:38:20;2.58;;;1.98;;
49678;SDS011;35570;48.218;16.326;2023-08-30T04:40:46;2.35;;;1.90;;
49678;SDS011;35570;48.218;16.326;2023-08-30T04:43:12;4.07;;;1.60;;
49678;SDS011;35570;48.218;16.326;2023-08-30T04:45:38;3.53;;;2.40;;
49678;SDS011;35570;48.218;16.326;2023-08-30T04:48:04;3.55;;;2.17;;
49678;SDS011;35570;48.218;16.326;2023-08-30T04:50:30;2.33;;;2.08;;
49678;SDS011;35570;48.218;16.326;2023-08-30T04:52:56;3.40;;;2.00;;
49678;SDS011;35570;48.218;16.326;2023-08-30T04:55:25;2.17;;;1.92;;
49678;SDS011;35570;48.218;16.326;2023-08-30T04:57:50;2.20;;;2.00;;
49678;SDS011;35570;48.218;16.326;2023-08-30T05:00:16;3.33;;;2.53;;
49678;SDS011;35570;48.218;16.326;2023-08-30T05:02:44;2.65;;;2.40;;
49678;SDS011;35570;48.218;16.326;2023-08-30T05:05:11;2.88;;;2.67;;
49678;SDS011;35570;48.218;16.326;2023-08-30T05:07:37;2.47;;;2.20;;
49678;SDS011;35570;48.218;16.326;2023-08-30T05:10:03;2.63;;;2.40;;
49678;SDS011;35570;48.218;16.326;2023-08-30T05:12:29;3.05;;;2.78;;
49678;SDS011;35570;48.218;16.326;2023-08-30T05:14:55;3.10;;;2.80;;
49678;SDS011;35570;48.218;16.326;2023-08-30T05:17:20;2.47;;;2.22;;
49678;SDS011;35570;48.218;16.326;2023-08-30T05:19:46;2.95;;;2.60;;
49678;SDS011;35570;48.218;16.326;2023-08-30T05:25:15;3.15;;;2.60;;
49678;SDS011;35570;48.218;16.326;2023-08-30T05:27:41;3.28;;;2.70;;
49678;SDS011;35570;48.218;16.326;2023-08-30T05:30:06;4.38;;;2.83;;
49678;SDS011;35570;48.218;16.326;2023-08-30T05:32:32;3.67;;;2.80;;
49678;SDS011;35570;48.218;16.326;2023-08-30T05:34:58;3.17;;;2.58;;
49678;SDS011;35570;48.218;16.326;2023-08-30T05:37:24;2.95;;;2.65;;
49678;SDS011;35570;48.218;16.326;2023-08-30T05:39:50;3.05;;;2.42;;
49678;SDS011;35570;48.218;16.326;2023-08-30T05:42:15;3.50;;;3.20;;
49678;SDS011;35570;48.218;16.326;2023-08-30T05:44:41;3.17;;;2.83;;
49678;SDS011;35570;48.218;16.326;2023-08-30T05:47:06;5.57;;;2.90;;
49678;SDS011;35570;48.218;16.326;2023-08-30T05:49:32;6.40;;;4.90;;
49678;SDS011;35570;48.218;16.326;2023-08-30T05:51:58;4.65;;;3.50;;
49678;SDS011;35570;48.218;16.326;2023-08-30T05:54:23;3.38;;;3.08;;
49678;SDS011;35570;48.218;16.326;2023-08-30T05:56:51;4.05;;;2.95;;
49678;SDS011;35570;48.218;16.326;2023-08-30T05:59:17;2.97;;;2.67;;
49678;SDS011;35570;48.218;16.326;2023-08-30T06:01:42;3.08;;;2.75;;
49678;SDS011;35570;48.218;16.326;2023-08-30T06:04:08;2.97;;;2.70;;
49678;SDS011;35570;48.218;16.326;2023-08-30T06:06:34;3.72;;;2.40;;
49678;SDS011;35570;48.218;16.326;2023-08-30T06:08:59;2.58;;;2.38;;
49678;SDS011;35570;48.218;16.326;2023-08-30T06:11:25;2.42;;;2.22;;
49678;SDS011;35570;48.218;16.326;2023-08-30T06:13:51;2.78;;;2.58;;
49678;SDS011;35570;48.218;16.326;2023-08-30T06:16:16;2.70;;;2.45;;
49678;SDS011;35570;48.218;16.326;2023-08-30T06:18:43;2.63;;;2.42;;
49678;SDS011;35570;48.218;16.326;2023-08-30T06:21:08;4.10;;;3.42;;
49678;SDS011;35570;48.218;16.326;2023-08-30T06:23:36;4.88;;;2.55;;
49678;SDS011;35570;48.218;16.326;2023-08-30T06:26:03;2.60;;;2.40;;
49678;SDS011;35570;48.218;16.326;2023-08-30T06:28:28;3.13;;;2.40;;
49678;SDS011;35570;48.218;16.326;2023-08-30T06:30:54;3.85;;;2.40;;
49678;SDS011;35570;48.218;16.326;2023-08-30T06:33:20;2.40;;;2.20;;
49678;SDS011;35570;48.218;16.326;2023-08-30T06:35:49;3.47;;;3.10;;
49678;SDS011;35570;48.218;16.326;2023-08-30T06:38:20;4.35;;;2.67;;
49678;SDS011;35570;48.218;16.326;2023-08-30T06:40:46;2.88;;;2.58;;
49678;SDS011;35570;48.218;16.326;2023-08-30T06:43:12;4.07;;;2.95;;
49678;SDS011;35570;48.218;16.326;2023-08-30T06:45:41;2.47;;;2.00;;
49678;SDS011;35570;48.218;16.326;2023-08-30T06:48:07;2.53;;;1.90;;
49678;SDS011;35570;48.218;16.326;2023-08-30T06:50:34;3.17;;;2.20;;
49678;SDS011;35570;48.218;16.326;2023-08-30T06:53:00;3.20;;;2.65;;
49678;SDS011;35570;48.218;16.326;2023-08-30T06:55:26;2.67;;;2.42;;
49678;SDS011;35570;48.218;16.326;2023-08-30T06:57:52;2.53;;;2.28;;
49678;SDS011;35570;48.218;16.326;2023-08-30T07:00:18;2.80;;;2.22;;
49678;SDS011;35570;48.218;16.326;2023-08-30T07:02:44;2.72;;;2.33;;
49678;SDS011;35570;48.218;16.326;2023-08-30T07:05:11;2.35;;;2.10;;
49678;SDS011;35570;48.218;16.326;2023-08-30T07:07:37;2.72;;;1.90;;
49678;SDS011;35570;48.218;16.326;2023-08-30T07:10:03;3.05;;;1.80;;
49678;SDS011;35570;48.218;16.326;2023-08-30T07:12:29;1.88;;;1.75;;
49678;SDS011;35570;48.218;16.326;2023-08-30T07:14:55;2.97;;;1.58;;
49678;SDS011;35570;48.218;16.326;2023-08-30T07:17:20;1.70;;;1.60;;
49678;SDS011;35570;48.218;16.326;2023-08-30T07:19:46;1.52;;;1.40;;
49678;SDS011;35570;48.218;16.326;2023-08-30T07:22:12;2.15;;;1.65;;
49678;SDS011;35570;48.218;16.326;2023-08-30T07:24:37;2.00;;;1.60;;
49678;SDS011;35570;48.218;16.326;2023-08-30T07:27:03;2.17;;;1.73;;
49678;SDS011;35570;48.218;16.326;2023-08-30T07:29:29;2.90;;;2.10;;
49678;SDS011;35570;48.218;16.326;2023-08-30T07:31:55;3.25;;;2.83;;
49678;SDS011;35570;48.218;16.326;2023-08-30T07:34:21;2.60;;;2.00;;
49678;SDS011;35570;48.218;16.326;2023-08-30T07:36:47;2.28;;;1.30;;
49678;SDS011;35570;48.218;16.326;2023-08-30T07:39:12;2.90;;;2.50;;
49678;SDS011;35570;48.218;16.326;2023-08-30T07:41:38;3.72;;;1.80;;
49678;SDS011;35570;48.218;16.326;2023-08-30T07:44:04;1.83;;;1.27;;
49678;SDS011;35570;48.218;16.326;2023-08-30T07:46:30;1.83;;;1.48;;
49678;SDS011;35570;48.218;16.326;2023-08-30T07:48:55;4.65;;;2.00;;
49678;SDS011;35570;48.218;16.326;2023-08-30T07:51:21;4.82;;;3.40;;
49678;SDS011;35570;48.218;16.326;2023-08-30T07:53:47;1.98;;;1.60;;
49678;SDS011;35570;48.218;16.326;2023-08-30T07:56:12;1.75;;;1.35;;
49678;SDS011;35570;48.218;16.326;2023-08-30T07:58:40;4.07;;;3.67;;
49678;SDS011;35570;48.218;16.326;2023-08-30T08:01:07;3.28;;;1.90;;
49678;SDS011;35570;48.218;16.326;2023-08-30T08:03:33;1.08;;;0.98;;
49678;SDS011;35570;48.218;16.326;2023-08-30T08:05:59;1.35;;;1.00;;
49678;SDS011;35570;48.218;16.326;2023-08-30T08:08:28;1.20;;;1.10;;
49678;SDS011;35570;48.218;16.326;2023-08-30T08:10:54;1.67;;;1.15;;
49678;SDS011;35570;48.218;16.326;2023-08-30T08:13:19;1.25;;;1.08;;
49678;SDS011;35570;48.218;16.326;2023-08-30T08:15:45;1.30;;;0.98;;
49678;SDS011;35570;48.218;16.326;2023-08-30T08:18:11;1.45;;;0.80;;
49678;SDS011;35570;48.218;16.326;2023-08-30T08:20:36;1.10;;;0.73;;
49678;SDS011;35570;48.218;16.326;2023-08-30T08:23:02;3.63;;;1.00;;
49678;SDS011;35570;48.218;16.326;2023-08-30T08:25:28;1.83;;;0.95;;
49678;SDS011;35570;48.218;16.326;2023-08-30T08:27:54;0.98;;;0.75;;
49678;SDS011;35570;48.218;16.326;2023-08-30T08:30:20;1.50;;;0.95;;
49678;SDS011;35570;48.218;16.326;2023-08-30T08:32:46;2.80;;;2.20;;
49678;SDS011;35570;48.218;16.326;2023-08-30T08:35:15;1.67;;;1.23;;
49678;SDS011;35570;48.218;16.326;2023-08-30T08:37:40;1.25;;;0.88;;
49678;SDS011;35570;48.218;16.326;2023-08-30T08:40:06;0.90;;;0.75;;
49678;SDS011;35570;48.218;16.326;2023-08-30T08:42:36;1.35;;;0.90;;
49678;SDS011;35570;48.218;16.326;2023-08-30T08:45:02;1.20;;;0.90;;
49678;SDS011;35570;48.218;16.326;2023-08-30T08:47:32;1.20;;;0.70;;
49678;SDS011;35570;48.218;16.326;2023-08-30T08:49:59;1.20;;;0.80;;
49678;SDS011;35570;48.218;16.326;2023-08-30T08:52:25;1.98;;;1.00;;
49678;SDS011;35570;48.218;16.326;2023-08-30T08:54:51;1.42;;;0.80;;
49678;SDS011;35570;48.218;16.326;2023-08-30T08:57:17;1.50;;;0.85;;
49678;SDS011;35570;48.218;16.326;2023-08-30T08:59:44;0.70;;;0.50;;
49678;SDS011;35570;48.218;16.326;2023-08-30T09:02:11;0.80;;;0.60;;
49678;SDS011;35570;48.218;16.326;2023-08-30T09:04:38;0.60;;;0.40;;
49678;SDS011;35570;48.218;16.326;2023-08-30T09:07:05;1.65;;;0.90;;
49678;SDS011;35570;48.218;16.326;2023-08-30T09:09:30;0.60;;;0.40;;
49678;SDS011;35570;48.218;16.326;2023-08-30T09:11:57;0.85;;;0.70;;
49678;SDS011;35570;48.218;16.326;2023-08-30T09:14:23;1.00;;;0.68;;
49678;SDS011;35570;48.218;16.326;2023-08-30T09:16:55;2.17;;;0.50;;
49678;SDS011;35570;48.218;16.326;2023-08-30T09:19:21;1.80;;;0.70;;
49678;SDS011;35570;48.218;16.326;2023-08-30T09:22:05;0.68;;;0.40;;
49678;SDS011;35570;48.218;16.326;2023-08-30T09:24:37;3.08;;;0.95;;
49678;SDS011;35570;48.218;16.326;2023-08-30T09:27:04;6.88;;;1.55;;
49678;SDS011;35570;48.218;16.326;2023-08-30T09:29:30;5.13;;;1.63;;
49678;SDS011;35570;48.218;16.326;2023-08-30T09:32:00;2.83;;;0.82;;
49678;SDS011;35570;48.218;16.326;2023-08-30T09:34:26;2.47;;;0.70;;
49678;SDS011;35570;48.218;16.326;2023-08-30T09:36:52;1.30;;;0.70;;
49678;SDS011;35570;48.218;16.326;2023-08-30T09:39:18;0.70;;;0.50;;
49678;SDS011;35570;48.218;16.326;2023-08-30T09:41:45;2.05;;;0.60;;
49678;SDS011;35570;48.218;16.326;2023-08-30T09:44:12;1.90;;;0.90;;
49678;SDS011;35570;48.218;16.326;2023-08-30T09:46:42;0.40;;;0.30;;
49678;SDS011;35570;48.218;16.326;2023-08-30T09:49:09;1.52;;;0.57;;
49678;SDS011;35570;48.218;16.326;2023-08-30T09:51:35;0.50;;;0.40;;
49678;SDS011;35570;48.218;16.326;2023-08-30T09:54:03;0.43;;;0.20;;
49678;SDS011;35570;48.218;16.326;2023-08-30T09:56:30;0.60;;;0.55;;
49678;SDS011;35570;48.218;16.326;2023-08-30T09:58:58;0.93;;;0.50;;
49678;SDS011;35570;48.218;16.326;2023-08-30T10:01:27;0.57;;;0.40;;
49678;SDS011;35570;48.218;16.326;2023-08-30T10:03:54;1.42;;;0.60;;
49678;SDS011;35570;48.218;16.326;2023-08-30T10:06:21;1.48;;;0.50;;
49678;SDS011;35570;48.218;16.326;2023-08-30T10:08:49;1.02;;;0.60;;
49678;SDS011;35570;48.218;16.326;2023-08-30T10:11:18;0.77;;;0.57;;
49678;SDS011;35570;48.218;16.326;2023-08-30T10:13:44;1.13;;;0.55;;
49678;SDS011;35570;48.218;16.326;2023-08-30T10:16:13;0.75;;;0.57;;
49678;SDS011;35570;48.218;16.326;2023-08-30T10:18:47;1.05;;;0.95;;
49678;SDS011;35570;48.218;16.326;2023-08-30T10:21:15;0.43;;;0.32;;
49678;SDS011;35570;48.218;16.326;2023-08-30T10:23:44;3.83;;;0.88;;
49678;SDS011;35570;48.218;16.326;2023-08-30T10:26:12;0.80;;;0.40;;
49678;SDS011;35570;48.218;16.326;2023-08-30T10:28:39;0.60;;;0.30;;
49678;SDS011;35570;48.218;16.326;2023-08-30T10:31:07;0.57;;;0.40;;
49678;SDS011;35570;48.218;16.326;2023-08-30T10:33:43;0.77;;;0.40;;
49678;SDS011;35570;48.218;16.326;2023-08-30T10:36:25;1.10;;;0.57;;
49678;SDS011;35570;48.218;16.326;2023-08-30T10:38:52;3.80;;;0.50;;
49678;SDS011;35570;48.218;16.326;2023-08-30T10:41:22;1.35;;;0.40;;
49678;SDS011;35570;48.218;16.326;2023-08-30T10:43:49;0.80;;;0.50;;
49678;SDS011;35570;48.218;16.326;2023-08-30T10:46:28;1.33;;;0.65;;
49678;SDS011;35570;48.218;16.326;2023-08-30T10:49:08;1.27;;;0.60;;
49678;SDS011;35570;48.218;16.326;2023-08-30T10:51:35;2.03;;;0.50;;
49678;SDS011;35570;48.218;16.326;2023-08-30T10:54:09;2.97;;;0.88;;
49678;SDS011;35570;48.218;16.326;2023-08-30T10:56:53;1.65;;;0.93;;
49678;SDS011;35570;48.218;16.326;2023-08-30T10:59:22;1.73;;;0.98;;
49678;SDS011;35570;48.218;16.326;2023-08-30T11:01:50;3.67;;;0.80;;
49678;SDS011;35570;48.218;16.326;2023-08-30T11:04:21;5.72;;;3.45;;
49678;SDS011;35570;48.218;16.326;2023-08-30T11:06:48;11.82;;;5.93;;
49678;SDS011;35570;48.218;16.326;2023-08-30T11:09:15;5.93;;;3.85;;
49678;SDS011;35570;48.218;16.326;2023-08-30T11:11:43;11.55;;;6.93;;
49678;SDS011;35570;48.218;16.326;2023-08-30T11:14:10;9.75;;;6.25;;
49678;SDS011;35570;48.218;16.326;2023-08-30T11:16:37;5.30;;;3.78;;
49678;SDS011;35570;48.218;16.326;2023-08-30T11:19:04;3.28;;;2.45;;
49678;SDS011;35570;48.218;16.326;2023-08-30T11:21:31;5.90;;;3.58;;
49678;SDS011;35570;48.218;16.326;2023-08-30T11:23:58;4.85;;;2.20;;
49678;SDS011;35570;48.218;16.326;2023-08-30T11:26:24;3.88;;;1.63;;
49678;SDS011;35570;48.218;16.326;2023-08-30T11:28:50;5.68;;;3.28;;
49678;SDS011;35570;48.218;16.326;2023-08-30T11:31:24;3.78;;;2.15;;
49678;SDS011;35570;48.218;16.326;2023-08-30T11:33:54;3.55;;;1.50;;
49678;SDS011;35570;48.218;16.326;2023-08-30T11:36:22;3.53;;;1.33;;
49678;SDS011;35570;48.218;16.326;2023-08-30T11:38:49;2.45;;;1.30;;
49678;SDS011;35570;48.218;16.326;2023-08-30T11:41:15;2.15;;;1.67;;
49678;SDS011;35570;48.218;16.326;2023-08-30T11:43:41;7.30;;;5.97;;
49678;SDS011;35570;48.218;16.326;2023-08-30T11:46:07;7.30;;;5.45;;
49678;SDS011;35570;48.218;16.326;2023-08-30T11:48:34;3.05;;;2.00;;
49678;SDS011;35570;48.218;16.326;2023-08-30T11:51:00;9.85;;;6.60;;
49678;SDS011;35570;48.218;16.326;2023-08-30T11:53:26;2.60;;;2.10;;
49678;SDS011;35570;48.218;16.326;2023-08-30T11:55:53;4.20;;;2.88;;
49678;SDS011;35570;48.218;16.326;2023-08-30T11:58:19;4.13;;;2.92;;
49678;SDS011;35570;48.218;16.326;2023-08-30T12:00:45;5.88;;;3.03;;
49678;SDS011;35570;48.218;16.326;2023-08-30T12:03:14;10.15;;;6.75;;
49678;SDS011;35570;48.218;16.326;2023-08-30T12:05:43;4.95;;;4.00;;
49678;SDS011;35570;48.218;16.326;2023-08-30T12:08:19;5.15;;;3.67;;
49678;SDS011;35570;48.218;16.326;2023-08-30T12:10:46;9.93;;;7.15;;
49678;SDS011;35570;48.218;16.326;2023-08-30T12:13:22;10.73;;;4.60;;
49678;SDS011;35570;48.218;16.326;2023-08-30T12:15:47;5.18;;;4.30;;
49678;SDS011;35570;48.218;16.326;2023-08-30T12:18:13;1.50;;;1.13;;
49678;SDS011;35570;48.218;16.326;2023-08-30T12:20:39;3.38;;;2.78;;
49678;SDS011;35570;48.218;16.326;2023-08-30T12:23:04;2.85;;;1.92;;
49678;SDS011;35570;48.218;16.326;2023-08-30T12:25:30;3.30;;;1.00;;
49678;SDS011;35570;48.218;16.326;2023-08-30T12:27:57;1.00;;;0.80;;
49678;SDS011;35570;48.218;16.326;2023-08-30T12:30:22;2.50;;;0.75;;
49678;SDS011;35570;48.218;16.326;2023-08-30T12:32:48;1.55;;;0.80;;
49678;SDS011;35570;48.218;16.326;2023-08-30T12:35:14;0.80;;;0.80;;
49678;SDS011;35570;48.218;16.326;2023-08-30T12:37:40;4.57;;;2.58;;
49678;SDS011;35570;48.218;16.326;2023-08-30T12:40:06;3.30;;;2.20;;
49678;SDS011;35570;48.218;16.326;2023-08-30T12:42:35;2.38;;;1.50;;
49678;SDS011;35570;48.218;16.326;2023-08-30T12:45:01;1.73;;;0.82;;
49678;SDS011;35570;48.218;16.326;2023-08-30T12:47:28;1.20;;;0.85;;
49678;SDS011;35570;48.218;16.326;2023-08-30T12:49:54;1.80;;;1.30;;
49678;SDS011;35570;48.218;16.326;2023-08-30T12:52:19;1.30;;;0.80;;
49678;SDS011;35570;48.218;16.326;2023-08-30T12:54:45;1.40;;;1.00;;
49678;SDS011;35570;48.218;16.326;2023-08-30T12:57:10;3.58;;;0.80;;
49678;SDS011;35570;48.218;16.326;2023-08-30T12:59:36;1.73;;;0.90;;
49678;SDS011;35570;48.218;16.326;2023-08-30T13:02:02;1.05;;;0.93;;
49678;SDS011;35570;48.218;16.326;2023-08-30T13:04:27;0.85;;;0.70;;
49678;SDS011;35570;48.218;16.326;2023-08-30T13:06:53;1.17;;;1.08;;
49678;SDS011;35570;48.218;16.326;2023-08-30T13:09:20;1.10;;;0.80;;
49678;SDS011;35570;48.218;16.326;2023-08-30T13:11:45;1.25;;;0.80;;
49678;SDS011;35570;48.218;16.326;2023-08-30T13:14:11;1.00;;;0.60;;
49678;SDS011;35570;48.218;16.326;2023-08-30T13:16:37;0.95;;;0.50;;
49678;SDS011;35570;48.218;16.326;2023-08-30T13:19:02;1.70;;;0.70;;
49678;SDS011;35570;48.218;16.326;2023-08-30T13:21:28;1.15;;;0.60;;
49678;SDS011;35570;48.218;16.326;2023-08-30T13:23:53;0.60;;;0.50;;
49678;SDS011;35570;48.218;16.326;2023-08-30T13:26:19;2.70;;;0.93;;
49678;SDS011;35570;48.218;16.326;2023-08-30T13:28:45;1.27;;;0.73;;
49678;SDS011;35570;48.218;16.326;2023-08-30T13:31:11;1.00;;;0.50;;
49678;SDS011;35570;48.218;16.326;2023-08-30T13:33:37;1.63;;;0.50;;
49678;SDS011;35570;48.218;16.326;2023-08-30T13:36:03;1.40;;;0.77;;
49678;SDS011;35570;48.218;16.326;2023-08-30T13:38:29;1.65;;;0.80;;
49678;SDS011;35570;48.218;16.326;2023-08-30T13:40:59;1.42;;;0.70;;
49678;SDS011;35570;48.218;16.326;2023-08-30T13:43:29;2.25;;;0.77;;
49678;SDS011;35570;48.218;16.326;2023-08-30T13:45:56;3.70;;;0.90;;
49678;SDS011;35570;48.218;16.326;2023-08-30T13:48:23;1.63;;;1.00;;
49678;SDS011;35570;48.218;16.326;2023-08-30T13:50:50;1.65;;;0.85;;
49678;SDS011;35570;48.218;16.326;2023-08-30T13:53:16;1.58;;;0.80;;
49678;SDS011;35570;48.218;16.326;2023-08-30T13:55:46;2.88;;;0.63;;
49678;SDS011;35570;48.218;16.326;2023-08-30T13:58:15;1.17;;;0.95;;
49678;SDS011;35570;48.218;16.326;2023-08-30T14:00:41;2.05;;;0.65;;
49678;SDS011;35570;48.218;16.326;2023-08-30T14:03:09;1.08;;;0.65;;
49678;SDS011;35570;48.218;16.326;2023-08-30T14:05:35;1.20;;;0.55;;
49678;SDS011;35570;48.218;16.326;2023-08-30T14:08:01;1.10;;;0.50;;
49678;SDS011;35570;48.218;16.326;2023-08-30T14:10:27;1.25;;;0.70;;
49678;SDS011;35570;48.218;16.326;2023-08-30T14:12:53;1.40;;;0.90;;
49678;SDS011;35570;48.218;16.326;2023-08-30T14:15:20;4.47;;;0.80;;
49678;SDS011;35570;48.218;16.326;2023-08-30T14:17:45;0.95;;;0.60;;
49678;SDS011;35570;48.218;16.326;2023-08-30T14:20:11;1.15;;;0.60;;
49678;SDS011;35570;48.218;16.326;2023-08-30T14:22:37;0.60;;;0.50;;
49678;SDS011;35570;48.218;16.326;2023-08-30T14:25:03;3.72;;;0.70;;
49678;SDS011;35570;48.218;16.326;2023-08-30T14:27:29;1.48;;;0.80;;
49678;SDS011;35570;48.218;16.326;2023-08-30T14:29:55;2.65;;;1.13;;
49678;SDS011;35570;48.218;16.326;2023-08-30T14:32:22;1.08;;;0.80;;
49678;SDS011;35570;48.218;16.326;2023-08-30T14:34:48;2.70;;;0.90;;
49678;SDS011;35570;48.218;16.326;2023-08-30T14:37:14;3.60;;;1.42;;
49678;SDS011;35570;48.218;16.326;2023-08-30T14:39:40;0.90;;;0.70;;
49678;SDS011;35570;48.218;16.326;2023-08-30T14:42:06;1.48;;;0.77;;
49678;SDS011;35570;48.218;16.326;2023-08-30T14:44:32;2.00;;;0.90;;